sensor_id;sensor_type;location;lat;lon;timestamp;pressure;altitude;pressure_sealevel;temperature;humidity
44934;BME280;30667;43.614;1.442;2023-04-01T00:00:20;100283.38;;;11.95;100.00
44934;BME280;30667;43.614;1.442;2023-04-01T00:02:45;100274.13;;;11.96;100.00
44934;BME280;30667;43.614;1.442;2023-04-01T00:05:11;100270.38;;;11.92;100.00
44934;BME280;30667;43.614;1.442;2023-04-01T00:07:38;100277.13;;;11.90;100.00
44934;BME280;30667;43.614;1.442;2023-04-01T00:10:05;100280.09;;;11.88;100.00
44934;BME280;30667;43.614;1.442;2023-04-01T00:12:31;100287.72;;;11.86;100.00
44934;BME280;30667;43.614;1.442;2023-04-01T00:14:57;100269.00;;;11.85;100.00
44934;BME280;30667;43.614;1.442;2023-04-01T00:17:22;100275.00;;;11.81;100.00
44934;BME280;30667;43.614;1.442;2023-04-01T00:19:48;100280.13;;;11.83;100.00
44934;BME280;30667;43.614;1.442;2023-04-01T00:22:13;100281.25;;;11.77;100.00
44934;BME280;30667;43.614;1.442;2023-04-01T00:24:39;100284.75;;;11.77;100.00
44934;BME280;30667;43.614;1.442;2023-04-01T00:27:04;100269.59;;;11.76;100.00
44934;BME280;30667;43.614;1.442;2023-04-01T00:29:30;100273.66;;;11.74;100.00
44934;BME280;30667;43.614;1.442;2023-04-01T00:31:59;100264.47;;;11.75;100.00
44934;BME280;30667;43.614;1.442;2023-04-01T00:34:24;100260.41;;;11.72;100.00
44934;BME280;30667;43.614;1.442;2023-04-01T00:36:50;100263.94;;;11.73;100.00
44934;BME280;30667;43.614;1.442;2023-04-01T00:39:17;100261.78;;;11.70;100.00
44934;BME280;30667;43.614;1.442;2023-04-01T00:41:42;100264.50;;;11.70;100.00
44934;BME280;30667;43.614;1.442;2023-04-01T00:44:20;100252.81;;;11.69;100.00
44934;BME280;30667;43.614;1.442;2023-04-01T00:46:47;100252.31;;;11.67;100.00
44934;BME280;30667;43.614;1.442;2023-04-01T00:49:13;100255.31;;;11.60;100.00
44934;BME280;30667;43.614;1.442;2023-04-01T00:51:41;100260.75;;;11.60;100.00
44934;BME280;30667;43.614;1.442;2023-04-01T00:54:08;100262.06;;;11.63;100.00
44934;BME280;30667;43.614;1.442;2023-04-01T00:56:37;100255.03;;;11.62;100.00
44934;BME280;30667;43.614;1.442;2023-04-01T00:59:11;100254.53;;;11.60;100.00
44934;BME280;30667;43.614;1.442;2023-04-01T01:01:39;100256.94;;;11.56;100.00
44934;BME280;30667;43.614;1.442;2023-04-01T01:04:05;100256.94;;;11.56;100.00
44934;BME280;30667;43.614;1.442;2023-04-01T01:10:21;100248.31;;;11.54;100.00
44934;BME280;30667;43.614;1.442;2023-04-01T01:20:17;100258.34;;;11.54;100.00
44934;BME280;30667;43.614;1.442;2023-04-01T01:31:36;100260.25;;;11.48;100.00
44934;BME280;30667;43.614;1.442;2023-04-01T01:37:03;100256.75;;;11.42;100.00
44934;BME280;30667;43.614;1.442;2023-04-01T01:39:33;100263.81;;;11.38;100.00
44934;BME280;30667;43.614;1.442;2023-04-01T01:42:04;100251.63;;;11.36;100.00
44934;BME280;30667;43.614;1.442;2023-04-01T01:44:32;100261.94;;;11.34;100.00
44934;BME280;30667;43.614;1.442;2023-04-01T01:47:00;100256.78;;;11.32;100.00
44934;BME280;30667;43.614;1.442;2023-04-01T01:49:27;100255.97;;;11.37;100.00
44934;BME280;30667;43.614;1.442;2023-04-01T01:51:56;100261.38;;;11.37;100.00
44934;BME280;30667;43.614;1.442;2023-04-01T01:54:21;100255.94;;;11.42;100.00
44934;BME280;30667;43.614;1.442;2023-04-01T01:56:49;100255.94;;;11.42;100.00
44934;BME280;30667;43.614;1.442;2023-04-01T01:59:17;100246.19;;;11.36;100.00
44934;BME280;30667;43.614;1.442;2023-04-01T02:01:49;100256.00;;;11.32;100.00
44934;BME280;30667;43.614;1.442;2023-04-01T02:04:17;100259.53;;;11.27;100.00
44934;BME280;30667;43.614;1.442;2023-04-01T02:06:57;100248.38;;;11.34;100.00
44934;BME280;30667;43.614;1.442;2023-04-01T02:09:25;100237.00;;;11.37;100.00
44934;BME280;30667;43.614;1.442;2023-04-01T02:11:57;100236.47;;;11.35;100.00
44934;BME280;30667;43.614;1.442;2023-04-01T02:15:01;100237.00;;;11.37;100.00
44934;BME280;30667;43.614;1.442;2023-04-01T02:17:31;100231.84;;;11.35;100.00
44934;BME280;30667;43.614;1.442;2023-04-01T02:20:13;100228.06;;;11.36;100.00
44934;BME280;30667;43.614;1.442;2023-04-01T02:22:47;100225.09;;;11.38;100.00
44934;BME280;30667;43.614;1.442;2023-04-01T02:25:18;100228.34;;;11.35;100.00
44934;BME280;30667;43.614;1.442;2023-04-01T02:27:45;100230.50;;;11.33;100.00
44934;BME280;30667;43.614;1.442;2023-04-01T02:30:13;100229.16;;;11.30;100.00
44934;BME280;30667;43.614;1.442;2023-04-01T02:32:39;100235.94;;;11.27;100.00
44934;BME280;30667;43.614;1.442;2023-04-01T02:35:07;100229.44;;;11.29;100.00
44934;BME280;30667;43.614;1.442;2023-04-01T02:37:34;100231.63;;;11.26;100.00
44934;BME280;30667;43.614;1.442;2023-04-01T02:40:05;100231.63;;;11.26;100.00
44934;BME280;30667;43.614;1.442;2023-04-01T02:42:34;100225.94;;;11.23;100.00
44934;BME280;30667;43.614;1.442;2023-04-01T02:45:00;100223.50;;;11.21;100.00
44934;BME280;30667;43.614;1.442;2023-04-01T02:47:25;100241.13;;;11.19;100.00
44934;BME280;30667;43.614;1.442;2023-04-01T02:49:51;100225.72;;;11.14;100.00
44934;BME280;30667;43.614;1.442;2023-04-01T02:52:23;100224.59;;;11.15;100.00
44934;BME280;30667;43.614;1.442;2023-04-01T02:54:48;100226.78;;;11.13;100.00
44934;BME280;30667;43.614;1.442;2023-04-01T02:57:14;100231.94;;;11.09;100.00
44934;BME280;30667;43.614;1.442;2023-04-01T02:59:39;100233.31;;;11.07;100.00
44934;BME280;30667;43.614;1.442;2023-04-01T03:02:05;100221.94;;;11.05;100.00
44934;BME280;30667;43.614;1.442;2023-04-01T03:04:32;100222.22;;;11.03;100.00
44934;BME280;30667;43.614;1.442;2023-04-01T03:06:57;100227.38;;;11.00;100.00
44934;BME280;30667;43.614;1.442;2023-04-01T03:09:23;100223.03;;;10.99;100.00
44934;BME280;30667;43.614;1.442;2023-04-01T03:11:48;100217.63;;;10.99;100.00
44934;BME280;30667;43.614;1.442;2023-04-01T03:14:14;100220.09;;;10.95;100.00
44934;BME280;30667;43.614;1.442;2023-04-01T03:16:39;100223.03;;;10.99;100.00
44934;BME280;30667;43.614;1.442;2023-04-01T03:19:05;100222.78;;;10.95;100.00
44934;BME280;30667;43.614;1.442;2023-04-01T03:21:30;100215.22;;;10.92;100.00
44934;BME280;30667;43.614;1.442;2023-04-01T03:23:56;100218.44;;;10.94;100.00
44934;BME280;30667;43.614;1.442;2023-04-01T03:26:21;100206.03;;;10.93;100.00
44934;BME280;30667;43.614;1.442;2023-04-01T03:28:47;100210.34;;;10.89;100.00
44934;BME280;30667;43.614;1.442;2023-04-01T03:31:13;100213.59;;;10.86;100.00
44934;BME280;30667;43.614;1.442;2023-04-01T03:33:38;100210.38;;;10.84;100.00
44934;BME280;30667;43.614;1.442;2023-04-01T03:36:07;100206.84;;;10.83;100.00
44934;BME280;30667;43.614;1.442;2023-04-01T03:38:35;100204.44;;;10.82;100.00
44934;BME280;30667;43.614;1.442;2023-04-01T03:41:01;100209.28;;;10.80;100.00
44934;BME280;30667;43.614;1.442;2023-04-01T03:43:27;100196.84;;;10.79;100.00
44934;BME280;30667;43.614;1.442;2023-04-01T03:45:52;100203.06;;;10.79;100.00
44934;BME280;30667;43.614;1.442;2023-04-01T03:48:20;100202.53;;;10.77;100.00
44934;BME280;30667;43.614;1.442;2023-04-01T03:50:46;100209.56;;;10.83;100.00
44934;BME280;30667;43.614;1.442;2023-04-01T03:53:12;100208.72;;;10.83;100.00
44934;BME280;30667;43.614;1.442;2023-04-01T03:55:38;100199.81;;;10.82;100.00
44934;BME280;30667;43.614;1.442;2023-04-01T03:58:05;100194.13;;;10.84;100.00
44934;BME280;30667;43.614;1.442;2023-04-01T04:00:31;100193.31;;;10.83;100.00
44934;BME280;30667;43.614;1.442;2023-04-01T04:02:57;100197.91;;;10.83;100.00
44934;BME280;30667;43.614;1.442;2023-04-01T04:05:24;100197.91;;;10.83;100.00
44934;BME280;30667;43.614;1.442;2023-04-01T04:07:49;100195.72;;;10.85;100.00
44934;BME280;30667;43.614;1.442;2023-04-01T04:10:15;100200.59;;;10.93;100.00
44934;BME280;30667;43.614;1.442;2023-04-01T04:12:40;100199.25;;;10.85;100.00
44934;BME280;30667;43.614;1.442;2023-04-01T04:15:07;100197.34;;;10.86;100.00
44934;BME280;30667;43.614;1.442;2023-04-01T04:17:32;100202.50;;;10.87;100.00
44934;BME280;30667;43.614;1.442;2023-04-01T04:19:58;100188.16;;;10.87;100.00
44934;BME280;30667;43.614;1.442;2023-04-01T04:22:23;100197.09;;;10.87;100.00
44934;BME280;30667;43.614;1.442;2023-04-01T04:24:49;100182.19;;;10.85;100.00
44934;BME280;30667;43.614;1.442;2023-04-01T04:27:14;100174.63;;;10.87;100.00
44934;BME280;30667;43.614;1.442;2023-04-01T04:29:40;100184.63;;;10.86;100.00
44934;BME280;30667;43.614;1.442;2023-04-01T04:32:05;100197.34;;;10.91;100.00
44934;BME280;30667;43.614;1.442;2023-04-01T04:34:31;100196.00;;;10.88;100.00
44934;BME280;30667;43.614;1.442;2023-04-01T04:36:56;100190.31;;;10.90;100.00
44934;BME280;30667;43.614;1.442;2023-04-01T04:39:22;100191.41;;;10.89;100.00
44934;BME280;30667;43.614;1.442;2023-04-01T04:41:47;100193.31;;;10.88;100.00
44934;BME280;30667;43.614;1.442;2023-04-01T04:44:13;100198.16;;;10.86;100.00
44934;BME280;30667;43.614;1.442;2023-04-01T04:46:38;100195.44;;;10.86;100.00
44934;BME280;30667;43.614;1.442;2023-04-01T04:49:05;100204.13;;;10.88;100.00
44934;BME280;30667;43.614;1.442;2023-04-01T04:51:30;100202.50;;;10.87;100.00
44934;BME280;30667;43.614;1.442;2023-04-01T04:53:59;100193.03;;;10.90;100.00
44934;BME280;30667;43.614;1.442;2023-04-01T04:56:25;100202.22;;;10.89;100.00
44934;BME280;30667;43.614;1.442;2023-04-01T04:58:51;100192.75;;;10.92;100.00
44934;BME280;30667;43.614;1.442;2023-04-01T05:01:17;100192.19;;;10.89;100.00
44934;BME280;30667;43.614;1.442;2023-04-01T05:03:43;100189.75;;;10.88;100.00
44934;BME280;30667;43.614;1.442;2023-04-01T05:06:10;100189.25;;;10.86;100.00
44934;BME280;30667;43.614;1.442;2023-04-01T05:08:36;100200.06;;;10.86;100.00
44934;BME280;30667;43.614;1.442;2023-04-01T05:11:10;100192.22;;;10.84;100.00
44934;BME280;30667;43.614;1.442;2023-04-01T05:13:36;100187.91;;;10.83;100.00
44934;BME280;30667;43.614;1.442;2023-04-01T05:16:02;100188.19;;;10.82;100.00
44934;BME280;30667;43.614;1.442;2023-04-01T05:18:27;100181.41;;;10.79;100.00
44934;BME280;30667;43.614;1.442;2023-04-01T05:20:54;100183.03;;;10.80;100.00
44934;BME280;30667;43.614;1.442;2023-04-01T05:23:21;100191.72;;;10.77;100.00
44934;BME280;30667;43.614;1.442;2023-04-01T05:25:48;100185.19;;;10.78;100.00
44934;BME280;30667;43.614;1.442;2023-04-01T05:28:15;100185.47;;;10.77;100.00
44934;BME280;30667;43.614;1.442;2023-04-01T05:30:41;100189.25;;;10.81;100.00
44934;BME280;30667;43.614;1.442;2023-04-01T05:33:08;100189.81;;;10.78;100.00
44934;BME280;30667;43.614;1.442;2023-04-01T05:35:33;100192.50;;;10.78;100.00
44934;BME280;30667;43.614;1.442;2023-04-01T05:37:59;100185.75;;;10.75;100.00
44934;BME280;30667;43.614;1.442;2023-04-01T05:40:24;100194.69;;;10.76;100.00
44934;BME280;30667;43.614;1.442;2023-04-01T05:42:50;100183.59;;;10.77;100.00
44934;BME280;30667;43.614;1.442;2023-04-01T05:45:15;100198.19;;;10.76;100.00
44934;BME280;30667;43.614;1.442;2023-04-01T05:47:41;100193.31;;;10.78;100.00
44934;BME280;30667;43.614;1.442;2023-04-01T05:50:08;100192.25;;;10.79;100.00
44934;BME280;30667;43.614;1.442;2023-04-01T05:52:34;100194.41;;;10.77;100.00
44934;BME280;30667;43.614;1.442;2023-04-01T05:54:59;100204.13;;;10.78;100.00
44934;BME280;30667;43.614;1.442;2023-04-01T05:57:26;100202.00;;;10.80;100.00
44934;BME280;30667;43.614;1.442;2023-04-01T05:59:51;100212.53;;;10.87;100.00
44934;BME280;30667;43.614;1.442;2023-04-01T06:02:17;100207.94;;;10.82;100.00
44934;BME280;30667;43.614;1.442;2023-04-01T06:04:44;100205.75;;;10.84;100.00
44934;BME280;30667;43.614;1.442;2023-04-01T06:07:11;100215.50;;;10.85;100.00
44934;BME280;30667;43.614;1.442;2023-04-01T06:09:38;100211.16;;;10.89;100.00
44934;BME280;30667;43.614;1.442;2023-04-01T06:12:25;100219.53;;;10.88;100.00
44934;BME280;30667;43.614;1.442;2023-04-01T06:15:20;100221.19;;;10.89;100.00
44934;BME280;30667;43.614;1.442;2023-04-01T06:21:09;100219.81;;;10.97;100.00
44934;BME280;30667;43.614;1.442;2023-04-01T06:29:33;100232.19;;;11.13;100.00
44934;BME280;30667;43.614;1.442;2023-04-01T06:37:29;100236.00;;;11.07;100.00
44934;BME280;30667;43.614;1.442;2023-04-01T06:42:50;100237.63;;;11.08;100.00
44934;BME280;30667;43.614;1.442;2023-04-01T06:53:21;100234.63;;;11.20;100.00
44934;BME280;30667;43.614;1.442;2023-04-01T06:56:02;100231.34;;;11.23;100.00
44934;BME280;30667;43.614;1.442;2023-04-01T06:58:35;100232.69;;;11.31;100.00
44934;BME280;30667;43.614;1.442;2023-04-01T07:01:14;100238.34;;;11.34;100.00
44934;BME280;30667;43.614;1.442;2023-04-01T07:03:47;100237.78;;;11.37;100.00
44934;BME280;30667;43.614;1.442;2023-04-01T07:06:29;100228.06;;;11.36;100.00
44934;BME280;30667;43.614;1.442;2023-04-01T07:08:59;100232.38;;;11.37;100.00
44934;BME280;30667;43.614;1.442;2023-04-01T07:11:31;100233.22;;;11.38;100.00
44934;BME280;30667;43.614;1.442;2023-04-01T07:14:04;100241.31;;;11.43;100.00
44934;BME280;30667;43.614;1.442;2023-04-01T07:16:35;100234.22;;;11.47;100.00
44934;BME280;30667;43.614;1.442;2023-04-01T07:19:22;100232.06;;;11.49;100.00
44934;BME280;30667;43.614;1.442;2023-04-01T07:22:00;100235.84;;;11.48;100.00
44934;BME280;30667;43.614;1.442;2023-04-01T07:24:32;100233.69;;;11.50;100.00
44934;BME280;30667;43.614;1.442;2023-04-01T07:26:58;100230.69;;;11.52;100.00
44934;BME280;30667;43.614;1.442;2023-04-01T07:29:25;100229.88;;;11.51;100.00
44934;BME280;30667;43.614;1.442;2023-04-01T07:35:17;100239.09;;;11.55;100.00
44934;BME280;30667;43.614;1.442;2023-04-01T07:40:46;100226.00;;;11.68;100.00
44934;BME280;30667;43.614;1.442;2023-04-01T07:43:22;100223.56;;;11.71;100.00
44934;BME280;30667;43.614;1.442;2023-04-01T07:48:41;100226.22;;;11.76;100.00
44934;BME280;30667;43.614;1.442;2023-04-01T07:51:15;100225.97;;;11.78;100.00
44934;BME280;30667;43.614;1.442;2023-04-01T07:59:41;100207.75;;;11.84;100.00
44934;BME280;30667;43.614;1.442;2023-04-01T08:05:26;100207.72;;;11.89;100.00
44934;BME280;30667;43.614;1.442;2023-04-01T08:08:06;100210.91;;;12.01;100.00
44934;BME280;30667;43.614;1.442;2023-04-01T08:19:39;100179.94;;;12.42;100.00
44934;BME280;30667;43.614;1.442;2023-04-01T08:22:16;100174.41;;;12.52;100.00
44934;BME280;30667;43.614;1.442;2023-04-01T08:24:46;100171.53;;;12.67;100.00
44934;BME280;30667;43.614;1.442;2023-04-01T08:27:49;100164.19;;;12.68;100.00
44934;BME280;30667;43.614;1.442;2023-04-01T08:30:19;100166.09;;;12.67;100.00
44934;BME280;30667;43.614;1.442;2023-04-01T08:33:01;100168.75;;;12.72;100.00
44934;BME280;30667;43.614;1.442;2023-04-01T08:35:37;100179.91;;;12.71;100.00
44934;BME280;30667;43.614;1.442;2023-04-01T08:38:13;100166.84;;;12.73;100.00
44934;BME280;30667;43.614;1.442;2023-04-01T08:46:56;100170.19;;;12.89;100.00
44934;BME280;30667;43.614;1.442;2023-04-01T08:49:22;100173.38;;;12.96;100.00
44934;BME280;30667;43.614;1.442;2023-04-01T09:19:17;100132.72;;;13.34;100.00
44934;BME280;30667;43.614;1.442;2023-04-01T09:27:29;100143.53;;;13.39;96.98
44934;BME280;30667;43.614;1.442;2023-04-01T09:35:39;100133.47;;;13.59;94.41
44934;BME280;30667;43.614;1.442;2023-04-01T09:46:26;100129.72;;;13.55;93.86
44934;BME280;30667;43.614;1.442;2023-04-01T09:52:02;100116.13;;;13.55;93.17
44934;BME280;30667;43.614;1.442;2023-04-01T10:24:47;100082.09;;;14.37;73.12
44934;BME280;30667;43.614;1.442;2023-04-01T10:33:19;100078.59;;;14.50;71.69
44934;BME280;30667;43.614;1.442;2023-04-01T10:39:27;100075.34;;;14.48;77.58
44934;BME280;30667;43.614;1.442;2023-04-01T10:50:21;100055.22;;;14.63;75.59
44934;BME280;30667;43.614;1.442;2023-04-01T11:32:02;100078.34;;;13.15;100.00
44934;BME280;30667;43.614;1.442;2023-04-01T11:34:48;100068.78;;;13.18;100.00
44934;BME280;30667;43.614;1.442;2023-04-01T11:40:25;100078.94;;;13.12;100.00
44934;BME280;30667;43.614;1.442;2023-04-01T11:42:55;100077.38;;;13.06;100.00
44934;BME280;30667;43.614;1.442;2023-04-01T11:45:34;100064.09;;;13.04;100.00
44934;BME280;30667;43.614;1.442;2023-04-01T11:56:34;100077.56;;;13.15;100.00
44934;BME280;30667;43.614;1.442;2023-04-01T11:59:19;100066.81;;;13.23;100.00
44934;BME280;30667;43.614;1.442;2023-04-01T12:02:09;100066.94;;;13.32;100.00
44934;BME280;30667;43.614;1.442;2023-04-01T12:12:42;100068.50;;;13.19;100.00
44934;BME280;30667;43.614;1.442;2023-04-01T12:18:00;100069.16;;;13.30;100.00
44934;BME280;30667;43.614;1.442;2023-04-01T12:21:08;100065.16;;;13.27;100.00
44934;BME280;30667;43.614;1.442;2023-04-01T12:26:55;100063.97;;;13.34;100.00
44934;BME280;30667;43.614;1.442;2023-04-01T12:37:29;100056.91;;;13.14;100.00
44934;BME280;30667;43.614;1.442;2023-04-01T12:40:24;100061.84;;;13.12;100.00
44934;BME280;30667;43.614;1.442;2023-04-01T12:46:00;100051.09;;;13.01;100.00
44934;BME280;30667;43.614;1.442;2023-04-01T13:01:59;100040.56;;;12.57;100.00
44934;BME280;30667;43.614;1.442;2023-04-01T13:10:01;100086.47;;;11.65;100.00
44934;BME280;30667;43.614;1.442;2023-04-01T13:12:46;100083.78;;;11.20;100.00
44934;BME280;30667;43.614;1.442;2023-04-01T13:15:44;100078.44;;;11.05;100.00
44934;BME280;30667;43.614;1.442;2023-04-01T13:23:52;100052.59;;;10.78;100.00
44934;BME280;30667;43.614;1.442;2023-04-01T13:26:34;100036.34;;;10.83;100.00
44934;BME280;30667;43.614;1.442;2023-04-01T13:42:46;100002.06;;;11.08;100.00
44934;BME280;30667;43.614;1.442;2023-04-01T13:45:16;100003.16;;;11.07;100.00
44934;BME280;30667;43.614;1.442;2023-04-01T13:59:02;100009.59;;;11.16;100.00
44934;BME280;30667;43.614;1.442;2023-04-01T14:01:57;99990.06;;;11.19;100.00
44934;BME280;30667;43.614;1.442;2023-04-01T14:18:36;99978.91;;;11.26;100.00
44934;BME280;30667;43.614;1.442;2023-04-01T14:27:21;99976.25;;;11.21;100.00
44934;BME280;30667;43.614;1.442;2023-04-01T14:33:02;99986.91;;;11.07;100.00
44934;BME280;30667;43.614;1.442;2023-04-01T14:38:28;100004.03;;;10.97;100.00
44934;BME280;30667;43.614;1.442;2023-04-01T14:46:24;100026.81;;;10.91;100.00
44934;BME280;30667;43.614;1.442;2023-04-01T14:48:59;100041.75;;;10.83;100.00
44934;BME280;30667;43.614;1.442;2023-04-01T14:51:35;100048.56;;;10.70;100.00
44934;BME280;30667;43.614;1.442;2023-04-01T14:56:41;100094.63;;;10.45;100.00
44934;BME280;30667;43.614;1.442;2023-04-01T14:59:17;100113.63;;;9.62;100.00
44934;BME280;30667;43.614;1.442;2023-04-01T15:04:50;100115.66;;;9.09;100.00
44934;BME280;30667;43.614;1.442;2023-04-01T15:16:13;100125.53;;;8.78;100.00
44934;BME280;30667;43.614;1.442;2023-04-01T15:19:03;100110.69;;;8.80;100.00
44934;BME280;30667;43.614;1.442;2023-04-01T15:24:36;100080.72;;;8.66;100.00
44934;BME280;30667;43.614;1.442;2023-04-01T15:27:20;100076.41;;;8.76;100.00
44934;BME280;30667;43.614;1.442;2023-04-01T15:33:06;100056.00;;;9.00;100.00
44934;BME280;30667;43.614;1.442;2023-04-01T15:35:48;100056.00;;;9.05;100.00
44934;BME280;30667;43.614;1.442;2023-04-01T15:43:58;100011.72;;;9.01;100.00
44934;BME280;30667;43.614;1.442;2023-04-01T16:00:08;99993.66;;;9.89;100.00
44934;BME280;30667;43.614;1.442;2023-04-01T16:08:21;100004.09;;;10.22;100.00
44934;BME280;30667;43.614;1.442;2023-04-01T16:22:13;100003.00;;;10.23;100.00
44934;BME280;30667;43.614;1.442;2023-04-01T16:32:57;100025.66;;;10.47;100.00
44934;BME280;30667;43.614;1.442;2023-04-01T16:35:43;100021.84;;;10.59;100.00
44934;BME280;30667;43.614;1.442;2023-04-01T16:43:48;100044.13;;;10.14;100.00
44934;BME280;30667;43.614;1.442;2023-04-01T16:46:38;100057.91;;;10.13;100.00
44934;BME280;30667;43.614;1.442;2023-04-01T16:51:52;100056.59;;;10.05;100.00
44934;BME280;30667;43.614;1.442;2023-04-01T16:54:39;100056.59;;;9.95;100.00
44934;BME280;30667;43.614;1.442;2023-04-01T16:59:39;100064.69;;;10.00;100.00
44934;BME280;30667;43.614;1.442;2023-04-01T17:04:46;100064.97;;;9.93;100.00
44934;BME280;30667;43.614;1.442;2023-04-01T17:13:34;100066.03;;;9.92;100.00
44934;BME280;30667;43.614;1.442;2023-04-01T17:22:13;100068.75;;;9.92;100.00
44934;BME280;30667;43.614;1.442;2023-04-01T17:41:51;100074.72;;;9.89;100.00
44934;BME280;30667;43.614;1.442;2023-04-01T17:49:35;100060.38;;;9.99;100.00
44934;BME280;30667;43.614;1.442;2023-04-01T17:55:07;100069.56;;;9.77;100.00
44934;BME280;30667;43.614;1.442;2023-04-01T17:58:02;100080.94;;;9.59;100.00
44934;BME280;30667;43.614;1.442;2023-04-01T18:00:54;100087.69;;;9.51;100.00
44934;BME280;30667;43.614;1.442;2023-04-01T18:14:29;100130.00;;;9.15;100.00
44934;BME280;30667;43.614;1.442;2023-04-01T18:23:02;100113.19;;;8.92;100.00
44934;BME280;30667;43.614;1.442;2023-04-01T18:25:38;100117.75;;;8.86;100.00
44934;BME280;30667;43.614;1.442;2023-04-01T18:30:32;100122.28;;;8.76;100.00
44934;BME280;30667;43.614;1.442;2023-04-01T18:33:04;100123.06;;;8.71;100.00
44934;BME280;30667;43.614;1.442;2023-04-01T18:41:19;100137.06;;;8.68;100.00
44934;BME280;30667;43.614;1.442;2023-04-01T18:43:59;100141.13;;;8.70;100.00
44934;BME280;30667;43.614;1.442;2023-04-01T18:49:27;100128.44;;;8.66;100.00
44934;BME280;30667;43.614;1.442;2023-04-01T18:52:07;100134.59;;;8.61;100.00
44934;BME280;30667;43.614;1.442;2023-04-01T18:54:43;100131.13;;;8.66;100.00
44934;BME280;30667;43.614;1.442;2023-04-01T18:57:15;100145.69;;;8.65;100.00
44934;BME280;30667;43.614;1.442;2023-04-01T18:59:46;100137.06;;;8.68;100.00
44934;BME280;30667;43.614;1.442;2023-04-01T19:02:55;100137.63;;;8.70;100.00
44934;BME280;30667;43.614;1.442;2023-04-01T19:05:34;100147.56;;;8.64;100.00
44934;BME280;30667;43.614;1.442;2023-04-01T19:24:21;100147.78;;;8.52;100.00
44934;BME280;30667;43.614;1.442;2023-04-01T19:42:20;100156.38;;;8.49;100.00
44934;BME280;30667;43.614;1.442;2023-04-01T19:52:46;100159.34;;;8.48;100.00
44934;BME280;30667;43.614;1.442;2023-04-01T19:56:28;100158.53;;;8.47;100.00
44934;BME280;30667;43.614;1.442;2023-04-01T20:00:57;100168.44;;;8.42;100.00
44934;BME280;30667;43.614;1.442;2023-04-01T20:06:44;100161.91;;;8.32;100.00
44934;BME280;30667;43.614;1.442;2023-04-01T20:09:40;100168.38;;;8.31;100.00
44934;BME280;30667;43.614;1.442;2023-04-01T20:13:22;100171.63;;;8.33;100.00
44934;BME280;30667;43.614;1.442;2023-04-01T20:15:34;100176.47;;;8.31;100.00
44934;BME280;30667;43.614;1.442;2023-04-01T20:18:05;100175.13;;;8.34;100.00
44934;BME280;30667;43.614;1.442;2023-04-01T20:20:31;100179.41;;;8.30;100.00
44934;BME280;30667;43.614;1.442;2023-04-01T20:28:44;100169.38;;;8.20;100.00
44934;BME280;30667;43.614;1.442;2023-04-01T20:31:35;100168.81;;;8.18;100.00
44934;BME280;30667;43.614;1.442;2023-04-01T20:34:21;100170.16;;;8.15;100.00
44934;BME280;30667;43.614;1.442;2023-04-01T20:39:57;100171.22;;;8.14;100.00
44934;BME280;30667;43.614;1.442;2023-04-01T20:42:39;100170.16;;;8.15;100.00
44934;BME280;30667;43.614;1.442;2023-04-01T20:45:21;100174.72;;;8.15;100.00
44934;BME280;30667;43.614;1.442;2023-04-01T21:01:44;100170.66;;;8.12;100.00
44934;BME280;30667;43.614;1.442;2023-04-01T21:04:53;100178.50;;;8.14;100.00
44934;BME280;30667;43.614;1.442;2023-04-01T21:07:35;100171.72;;;8.11;100.00
44934;BME280;30667;43.614;1.442;2023-04-01T21:15:34;100174.44;;;8.16;100.00
44934;BME280;30667;43.614;1.442;2023-04-01T21:30:22;100180.06;;;8.10;100.00
44934;BME280;30667;43.614;1.442;2023-04-01T21:36:03;100180.06;;;8.10;100.00
44934;BME280;30667;43.614;1.442;2023-04-01T21:40:55;100181.59;;;8.00;100.00
44934;BME280;30667;43.614;1.442;2023-04-01T21:48:47;100179.91;;;7.94;100.00
44934;BME280;30667;43.614;1.442;2023-04-01T22:02:14;100192.78;;;8.14;100.00
44934;BME280;30667;43.614;1.442;2023-04-01T22:05:15;100186.44;;;7.98;100.00
44934;BME280;30667;43.614;1.442;2023-04-01T22:13:13;100184.25;;;7.95;100.00
44934;BME280;30667;43.614;1.442;2023-04-01T22:16:32;100187.97;;;7.89;100.00
44934;BME280;30667;43.614;1.442;2023-04-01T22:18:39;100188.06;;;7.99;100.00
44934;BME280;30667;43.614;1.442;2023-04-01T22:21:32;100189.06;;;7.88;100.00
44934;BME280;30667;43.614;1.442;2023-04-01T22:24:06;100193.31;;;7.84;100.00
44934;BME280;30667;43.614;1.442;2023-04-01T22:32:36;100217.25;;;7.80;100.00
44934;BME280;30667;43.614;1.442;2023-04-01T22:35:32;100223.16;;;7.77;100.00
44934;BME280;30667;43.614;1.442;2023-04-01T22:40:33;100222.06;;;7.78;100.00
44934;BME280;30667;43.614;1.442;2023-04-01T22:43:06;100224.22;;;7.76;100.00
44934;BME280;30667;43.614;1.442;2023-04-01T22:45:43;100230.41;;;7.77;100.00
44934;BME280;30667;43.614;1.442;2023-04-01T22:48:18;100226.06;;;7.71;100.00
44934;BME280;30667;43.614;1.442;2023-04-01T22:50:59;100226.06;;;7.71;100.00
44934;BME280;30667;43.614;1.442;2023-04-01T22:53:37;100218.47;;;7.68;100.00
44934;BME280;30667;43.614;1.442;2023-04-01T22:56:12;100224.66;;;7.68;100.00
44934;BME280;30667;43.614;1.442;2023-04-01T22:58:50;100216.53;;;7.63;100.00
44934;BME280;30667;43.614;1.442;2023-04-01T23:01:21;100222.97;;;7.62;100.00
44934;BME280;30667;43.614;1.442;2023-04-01T23:03:51;100215.44;;;7.64;100.00
44934;BME280;30667;43.614;1.442;2023-04-01T23:06:22;100212.22;;;7.62;100.00
44934;BME280;30667;43.614;1.442;2023-04-01T23:09:23;100220.53;;;7.60;100.00
44934;BME280;30667;43.614;1.442;2023-04-01T23:19:41;100225.88;;;7.55;100.00